createdAt,value
2022-09-26T00:04:23.654Z,148649.59
2022-09-26T00:09:29.239Z,148634.16
2022-09-26T00:14:35.223Z,148617.41
2022-09-26T00:19:38.571Z,148605.84
2022-09-26T00:24:41.862Z,148622.59
2022-09-26T00:29:47.128Z,148603.28
2022-09-26T00:34:51.123Z,148607.13
2022-09-26T00:39:54.652Z,148612.28
2022-09-26T00:45:02.805Z,148599.44
2022-09-26T00:50:13.450Z,148583.94
2022-09-26T00:55:20.780Z,148607.13
2022-09-26T01:00:25.549Z,148611.00
2022-09-26T01:05:29.629Z,148604.56
2022-09-26T01:10:35.422Z,148632.88
2022-09-26T01:15:40.162Z,148599.44
2022-09-26T01:20:53.029Z,148616.13
2022-09-26T01:26:30.227Z,148614.84
2022-09-26T01:31:43.756Z,148602.00
2022-09-26T01:37:03.320Z,148596.81
2022-09-26T01:42:18.091Z,148594.25
2022-09-26T01:47:28.761Z,148607.13
2022-09-26T01:52:38.142Z,148627.72
2022-09-26T01:57:48.602Z,148598.13
2022-09-26T02:02:57.237Z,148594.25
2022-09-26T02:08:06.552Z,148613.56
2022-09-26T02:13:16.041Z,148645.75
2022-09-26T02:18:24.883Z,148630.28
2022-09-26T02:23:28.302Z,148622.59
2022-09-26T02:28:32.066Z,148627.72
2022-09-26T02:33:38.169Z,148652.22
2022-09-26T02:38:42.120Z,148638.00
2022-09-26T02:44:26.318Z,148607.13
2022-09-26T02:49:50.912Z,148661.19
2022-09-26T02:55:04.152Z,148644.47
2022-09-26T03:00:12.089Z,148634.16
2022-09-26T03:05:21.999Z,148659.91
2022-09-26T03:10:28.457Z,148611.00
2022-09-26T03:15:35.186Z,148658.63
2022-09-26T03:20:40.942Z,148670.19
2022-09-26T03:25:45.000Z,148707.63
2022-09-26T03:30:50.995Z,148739.81
2022-09-26T03:36:07.517Z,148772.00
2022-09-26T03:41:12.304Z,148710.19
2022-09-26T03:46:21.145Z,148675.38
2022-09-26T03:51:26.637Z,148670.19
2022-09-26T03:56:30.307Z,148706.34
2022-09-26T04:01:34.110Z,148728.22
2022-09-26T04:06:39.427Z,148711.47
2022-09-26T04:11:43.256Z,148683.06
2022-09-26T04:16:47.143Z,148698.59
2022-09-26T04:22:08.366Z,148650.88
2022-09-26T04:27:12.299Z,148661.19
2022-09-26T04:32:15.985Z,148658.63
2022-09-26T04:37:38.203Z,148639.28
2022-09-26T04:42:42.732Z,148620.03
2022-09-26T04:47:46.931Z,148600.72
2022-09-26T04:53:05.327Z,148626.44
2022-09-26T04:58:10.492Z,148649.59
2022-09-26T05:03:14.758Z,148658.63
2022-09-26T05:08:19.792Z,148629.00
2022-09-26T05:13:24.074Z,148667.63
2022-09-26T05:18:28.201Z,148707.63
2022-09-26T05:23:50.688Z,148730.78
2022-09-26T05:28:56.484Z,148756.53
2022-09-26T05:34:05.786Z,148796.47
2022-09-26T05:39:31.444Z,148828.66
2022-09-26T05:44:35.076Z,148799.03
2022-09-26T05:49:40.437Z,148779.69
2022-09-26T05:54:48.735Z,148766.84
2022-09-26T06:00:14.284Z,148769.41
2022-09-26T06:05:23.733Z,148809.34
2022-09-26T06:10:50.525Z,148867.28
2022-09-26T06:15:55.153Z,148871.19
2022-09-26T06:20:58.862Z,148956.25
2022-09-26T06:26:08.527Z,148918.84
2022-09-26T06:31:13.000Z,148911.09
2022-09-26T06:36:35.988Z,148912.44
2022-09-26T06:41:40.766Z,148900.84
2022-09-26T06:47:02.540Z,148913.72
2022-09-26T06:52:12.065Z,148912.44
2022-09-26T06:57:17.773Z,148931.72
2022-09-26T07:02:21.594Z,148934.34
2022-09-26T07:08:03.958Z,148991.03
2022-09-26T07:13:11.111Z,148972.97
2022-09-26T07:18:14.936Z,148972.97
2022-09-26T07:23:36.602Z,148988.47
2022-09-26T07:28:41.491Z,148985.84
2022-09-26T07:33:44.972Z,149036.13
2022-09-26T07:38:49.589Z,149054.19
2022-09-26T07:49:38.939Z,149090.31
2022-09-26T07:54:45.388Z,149100.63
2022-09-26T08:00:06.057Z,149039.97
2022-09-26T08:05:25.634Z,149060.59
2022-09-26T08:10:29.565Z,149020.69
2022-09-26T08:16:06.093Z,149087.75
2022-09-26T08:21:14.358Z,149156.06
2022-09-26T08:26:23.937Z,149220.56
2022-09-26T08:31:35.229Z,149248.94
2022-09-26T08:36:38.922Z,149327.63
2022-09-26T08:42:28.832Z,149286.34
2022-09-26T08:48:08.138Z,149243.75
2022-09-26T08:53:23.758Z,149241.19
2022-09-26T08:58:38.742Z,149215.41
2022-09-26T09:03:52.752Z,149190.88
2022-09-26T09:08:58.262Z,149251.50
2022-09-26T09:14:24.372Z,149205.09
2022-09-26T09:19:48.938Z,149241.19
2022-09-26T09:25:24.756Z,149176.72
2022-09-26T09:30:37.098Z,149187.03
2022-09-26T09:36:11.893Z,149192.16
2022-09-26T09:41:52.164Z,149264.41
2022-09-26T09:46:57.545Z,149247.66
2022-09-26T09:52:15.143Z,149318.59
2022-09-26T09:57:42.668Z,149344.38
2022-09-26T10:02:53.217Z,149377.97
2022-09-26T10:08:22.610Z,149393.44
2022-09-26T10:13:46.277Z,149451.53
2022-09-26T10:19:07.217Z,149414.06
2022-09-26T10:24:27.988Z,149421.84
2022-09-26T10:29:38.411Z,149445.09
2022-09-26T10:34:42.436Z,149426.97
2022-09-26T10:40:11.815Z,149504.47
2022-09-26T10:45:20.432Z,149601.28
2022-09-26T10:51:02.022Z,149649.09
2022-09-26T10:56:26.394Z,149742.06
2022-09-26T11:01:33.653Z,149798.94
2022-09-26T11:06:44.049Z,149796.38
2022-09-26T11:12:23.955Z,149863.56
2022-09-26T11:17:47.397Z,149858.41
2022-09-26T11:23:00.692Z,150061.41
2022-09-26T11:28:12.712Z,150228.22
2022-09-26T11:33:36.233Z,150243.75
2022-09-26T11:38:59.464Z,150150.63
2022-09-26T11:44:23.729Z,150355.09
2022-09-26T11:50:09.206Z,150171.34
2022-09-26T11:55:51.436Z,149992.81
2022-09-26T12:01:01.614Z,149987.66
2022-09-26T12:06:20.088Z,149911.41
2022-09-26T12:11:34.106Z,150049.72
2022-09-26T12:16:49.702Z,150043.25
2022-09-26T12:22:19.179Z,150017.41
2022-09-26T12:27:26.585Z,150167.41
2022-09-26T12:32:56.689Z,150076.91
2022-09-26T12:38:25.055Z,149894.59
2022-09-26T12:43:49.031Z,150149.34
2022-09-26T12:49:12.108Z,150355.09
2022-09-26T12:54:45.941Z,150259.28
2022-09-26T13:00:16.734Z,150247.66
2022-09-26T13:06:08.373Z,150199.75
2022-09-26T13:11:22.860Z,150106.66
2022-09-26T13:16:38.625Z,150041.97
2022-09-26T13:21:59.477Z,150085.97
2022-09-26T13:27:13.345Z,150190.75
2022-09-26T13:32:23.053Z,150206.25
2022-09-26T13:37:39.173Z,150085.97
2022-09-26T13:43:07.551Z,150047.13
2022-09-26T13:48:42.994Z,150014.78
2022-09-26T13:54:06.074Z,150021.28
2022-09-26T13:59:30.766Z,150095.03
2022-09-26T14:04:46.005Z,150139.00
2022-09-26T14:09:59.100Z,150069.13
2022-09-26T14:15:22.795Z,149974.75
2022-09-26T14:20:29.823Z,149974.75
2022-09-26T14:25:56.744Z,150040.69
2022-09-26T14:31:12.460Z,150040.69
2022-09-26T14:36:26.108Z,149978.59
2022-09-26T14:41:34.719Z,149948.84
2022-09-26T14:46:38.821Z,149964.41
2022-09-26T14:51:49.638Z,149920.47
2022-09-26T14:57:08.118Z,149963.13
2022-09-26T15:02:21.605Z,149867.47
2022-09-26T15:07:26.670Z,149695.56
2022-09-26T15:12:39.969Z,149656.81
2022-09-26T15:17:49.488Z,149685.25
2022-09-26T15:22:57.337Z,149699.44
2022-09-26T15:28:02.870Z,149716.25
2022-09-26T15:33:07.501Z,149615.53
2022-09-26T15:38:14.095Z,149571.59
2022-09-26T15:43:21.525Z,149556.09
2022-09-26T15:48:38.727Z,149496.75
2022-09-26T15:53:46.809Z,149467.06
2022-09-26T15:58:54.057Z,149439.91
2022-09-26T16:03:59.655Z,149394.72
2022-09-26T16:09:09.149Z,149331.47
2022-09-26T16:14:34.283Z,149321.16
2022-09-26T16:19:47.298Z,149269.59
2022-09-26T16:24:52.301Z,149207.66
2022-09-26T16:30:04.697Z,149219.28
2022-09-26T16:35:19.756Z,149212.81
2022-09-26T16:40:23.359Z,149153.50
2022-09-26T16:45:28.441Z,149122.56
2022-09-26T16:50:36.862Z,149063.22
2022-09-26T16:55:47.300Z,149009.09
2022-09-26T17:01:10.223Z,148978.16
2022-09-26T17:06:43.015Z,148971.69
2022-09-26T17:11:48.521Z,148921.41
2022-09-26T17:16:55.505Z,148880.22
2022-09-26T17:22:00.532Z,148869.91
2022-09-26T17:27:07.140Z,148833.81
2022-09-26T17:32:15.158Z,148808.06
2022-09-26T17:37:22.094Z,148797.75
2022-09-26T17:42:25.715Z,148797.75
2022-09-26T17:47:31.786Z,148806.78
2022-09-26T17:52:36.852Z,148765.56
2022-09-26T17:57:41.832Z,148742.38
2022-09-26T18:02:56.327Z,148687.00
2022-09-26T18:08:05.593Z,148694.69
2022-09-26T18:13:17.082Z,148665.06
2022-09-26T18:18:42.209Z,148670.19
2022-09-26T18:24:09.383Z,148605.84
2022-09-26T18:29:15.543Z,148627.72
2022-09-26T18:34:44.723Z,148609.72
2022-09-26T18:40:03.866Z,148617.41
2022-09-26T18:45:20.541Z,148687.00
2022-09-26T18:50:36.355Z,148717.91
2022-09-26T18:55:58.851Z,148715.31
2022-09-26T19:01:15.349Z,148714.03
2022-09-26T19:06:23.713Z,148656.06
2022-09-26T19:11:28.495Z,148662.47
2022-09-26T19:16:32.001Z,148684.34
2022-09-26T19:21:39.403Z,148667.63
2022-09-26T19:26:44.535Z,148638.00
2022-09-26T19:31:48.007Z,148563.34
2022-09-26T19:36:53.943Z,148556.94
2022-09-26T19:41:57.575Z,148585.22
2022-09-26T19:47:03.113Z,148520.88
2022-09-26T19:52:16.240Z,148536.34
2022-09-26T20:02:32.629Z,148468.09
2022-09-26T20:07:36.264Z,148459.16
2022-09-26T20:12:39.696Z,148518.31
2022-09-26T20:17:46.686Z,148519.59
2022-09-26T20:22:51.141Z,148453.97
2022-09-26T20:27:55.963Z,148406.38
2022-09-26T20:33:01.121Z,148387.09
2022-09-26T20:38:10.263Z,148405.13
2022-09-26T20:43:18.735Z,148528.63
2022-09-26T20:48:26.671Z,148567.25
2022-09-26T20:53:36.773Z,148590.41
2022-09-26T20:58:42.309Z,148604.56
2022-09-26T21:03:49.926Z,148592.97
2022-09-26T21:08:53.434Z,148571.09
2022-09-26T21:13:59.872Z,148509.28
2022-09-26T21:19:05.529Z,148488.69
2022-09-26T21:24:18.070Z,148474.56
2022-09-26T21:29:31.472Z,148433.38
2022-09-26T21:34:38.905Z,148439.84
2022-09-26T21:39:45.919Z,148414.06
2022-09-26T21:44:54.910Z,148403.84
2022-09-26T21:50:13.427Z,148398.66
2022-09-26T21:55:29.782Z,148381.91
2022-09-26T22:00:35.322Z,148372.94
2022-09-26T22:05:41.853Z,148375.50
2022-09-26T22:10:46.307Z,148339.50
2022-09-26T22:15:52.742Z,148303.47
2022-09-26T22:20:57.593Z,148307.34
2022-09-26T22:26:01.304Z,148298.34
2022-09-26T22:31:05.943Z,148321.50
2022-09-26T22:36:11.062Z,148342.06
2022-09-26T22:41:25.837Z,148349.81
2022-09-26T22:46:34.300Z,148329.22
2022-09-26T22:51:39.878Z,148335.63
2022-09-26T22:56:43.335Z,148371.66
2022-09-26T23:01:47.090Z,148347.19
2022-09-26T23:06:52.883Z,148338.19
2022-09-26T23:11:56.503Z,148349.81
2022-09-26T23:16:59.917Z,148363.94
2022-09-26T23:22:04.871Z,148367.78
2022-09-26T23:27:08.649Z,148352.38
2022-09-26T23:32:12.084Z,148327.88
2022-09-26T23:37:16.743Z,148300.91
2022-09-26T23:42:20.053Z,148334.34
2022-09-26T23:47:23.440Z,148326.59
2022-09-26T23:52:28.168Z,148300.91
2022-09-26T23:57:31.464Z,148294.47
